Map

Track Data

SID SEASON NUMBER BASIN SUBBASIN NAME ISO_TIME NATURE LAT LON WMO_WIND WMO_PRES WMO_AGENCY TRACK_TYPE DIST2LAND LANDFALL IFLAG USA_AGENCY USA_ATCF_ID USA_LAT USA_LON USA_RECORD USA_STATUS USA_WIND USA_PRES USA_SSHS USA_R34_NE USA_R34_SE USA_R34_SW USA_R34_NW USA_R50_NE USA_R50_SE USA_R50_SW USA_R50_NW USA_R64_NE USA_R64_SE USA_R64_SW USA_R64_NW USA_POCI USA_ROCI USA_RMW USA_EYE TOKYO_LAT TOKYO_LON TOKYO_GRADE TOKYO_WIND TOKYO_PRES TOKYO_R50_DIR TOKYO_R50_LONG TOKYO_R50_SHORT TOKYO_R30_DIR TOKYO_R30_LONG TOKYO_R30_SHORT TOKYO_LAND CMA_LAT CMA_LON CMA_CAT CMA_WIND CMA_PRES HKO_LAT HKO_LON HKO_CAT HKO_WIND HKO_PRES NEWDELHI_LAT NEWDELHI_LON NEWDELHI_GRADE NEWDELHI_WIND NEWDELHI_PRES NEWDELHI_CI NEWDELHI_DP NEWDELHI_POCI REUNION_LAT REUNION_LON REUNION_TYPE REUNION_WIND REUNION_PRES REUNION_TNUM REUNION_CI REUNION_RMW REUNION_R34_NE REUNION_R34_SE REUNION_R34_SW REUNION_R34_NW REUNION_R50_NE REUNION_R50_SE REUNION_R50_SW REUNION_R50_NW REUNION_R64_NE REUNION_R64_SE REUNION_R64_SW REUNION_R64_NW BOM_LAT BOM_LON BOM_TYPE BOM_WIND BOM_PRES BOM_TNUM BOM_CI BOM_RMW BOM_R34_NE BOM_R34_SE BOM_R34_SW BOM_R34_NW BOM_R50_NE BOM_R50_SE BOM_R50_SW BOM_R50_NW BOM_R64_NE BOM_R64_SE BOM_R64_SW BOM_R64_NW BOM_ROCI BOM_POCI BOM_EYE BOM_POS_METHOD BOM_PRES_METHOD NADI_LAT NADI_LON NADI_CAT NADI_WIND NADI_PRES WELLINGTON_LAT WELLINGTON_LON WELLINGTON_WIND WELLINGTON_PRES DS824_LAT DS824_LON DS824_STAGE DS824_WIND DS824_PRES TD9636_LAT TD9636_LON TD9636_STAGE TD9636_WIND TD9636_PRES TD9635_LAT TD9635_LON TD9635_WIND TD9635_PRES TD9635_ROCI NEUMANN_LAT NEUMANN_LON NEUMANN_CLASS NEUMANN_WIND NEUMANN_PRES MLC_LAT MLC_LON MLC_CLASS MLC_WIND MLC_PRES USA_GUST BOM_GUST BOM_GUST_PER REUNION_GUST REUNION_GUST_PER USA_SEAHGT USA_SEARAD_NE USA_SEARAD_SE USA_SEARAD_SW USA_SEARAD_NW STORM_SPEED STORM_DIR
1916017S17054 1916 5 SI MM NOT_NAMED 1916-01-17 06:00:00 NR -17.4000 54.1000 reunion main 421 411 _____O________ -1 -17.4000 54.1000 99 9.90000 2 219
1916017S17054 1916 5 SI MM NOT_NAMED 1916-01-17 09:00:00 NR -17.4750 54.0384 main 414 414 _____P________ -1 -17.4750 54.0384 99 2 218
1916017S17054 1916 5 SI MM NOT_NAMED 1916-01-17 12:00:00 NR -17.5500 53.9768 main 404 404 _____P________ -1 -17.5500 53.9768 99 2 218
1916017S17054 1916 5 SI MM NOT_NAMED 1916-01-17 15:00:00 NR -17.6250 53.9149 main 407 397 _____P________ -1 -17.6250 53.9149 99 2 218
1916017S17054 1916 5 SI MM NOT_NAMED 1916-01-17 18:00:00 NR -17.7000 53.8527 main 397 390 _____P________ -1 -17.7000 53.8527 99 2 218
1916017S17054 1916 5 SI MM NOT_NAMED 1916-01-17 21:00:00 NR -17.7750 53.7902 main 390 390 _____P________ -1 -17.7750 53.7902 99 2 218
1916017S17054 1916 5 SI MM NOT_NAMED 1916-01-18 00:00:00 NR -17.8500 53.7273 main 385 385 _____P________ -1 -17.8500 53.7273 99 2 218
1916017S17054 1916 5 SI MM NOT_NAMED 1916-01-18 03:00:00 NR -17.9250 53.6639 main 385 379 _____P________ -1 -17.9250 53.6639 99 4 242
1916017S17054 1916 5 SI MM NOT_NAMED 1916-01-18 06:00:00 TS -18.0333 53.3667 reunion main 390 386 _____O___OO___ -1 -18.0000 53.6000 99 9.90000 -18.1000 52.9000 TC 35 -18.1000 52.9000 2 5 246
1916017S17054 1916 5 SI MM NOT_NAMED 1916-01-18 09:00:00 TS -18.1401 53.1657 main 388 373 _____P___PP___ -1 -18.0754 53.5355 99 -18.2000 52.8025 TC 35 -18.2094 52.7892 2 4 238
1916017S17054 1916 5 SI MM NOT_NAMED 1916-01-18 12:00:00 TS -18.2458 53.0031 main 373 365 _____P___OP___ -1 -18.1531 53.4708 99 -18.3000 52.7000 TC 35 -18.3151 52.6827 2 4 234
1916017S17054 1916 5 SI MM NOT_NAMED 1916-01-18 15:00:00 TS -18.3496 52.8612 main 365 357 _____P___PP___ -1 -18.2356 53.4062 99 -18.4000 52.5925 TC 35 -18.4132 52.5848 2 3 227
1916017S17054 1916 5 SI MM NOT_NAMED 1916-01-18 18:00:00 TS -18.4417 52.7808 main 357 349 _____P___OO___ -1 -18.3250 53.3423 99 -18.5000 52.5000 TC 35 -18.5000 52.5000 2 2 217
1916017S17054 1916 5 SI MM NOT_NAMED 1916-01-18 21:00:00 TS -18.5331 52.7177 main 349 349 _____P___PP___ -1 -18.4238 53.2793 99 -18.6000 52.4425 TC 35 -18.5756 52.4315 2 2 211
1916017S17054 1916 5 SI MM NOT_NAMED 1916-01-19 00:00:00 TS -18.6298 52.6650 main 351 342 _____P___OP___ -1 -18.5344 53.2176 99 -18.7000 52.4000 TC 35 -18.6550 52.3774 2 2 206
1916017S17054 1916 5 SI MM NOT_NAMED 1916-01-19 03:00:00 TS -18.7311 52.6141 main 342 342 _____P___PP___ -1 -18.6590 53.1577 99 -18.7775 52.3500 TC 35 -18.7569 52.3346 2 3 203
1916017S17054 1916 5 SI MM NOT_NAMED 1916-01-19 06:00:00 TS -18.8667 52.5667 reunion main 346 336 _____O___OO___ -1 -18.8000 53.1000 99 9.90000 -18.9000 52.3000 TC 35 -18.9000 52.3000 2 4 196
1916017S17054 1916 5 SI MM NOT_NAMED 1916-01-19 09:00:00 TS -19.0665 52.5097 main 341 341 _____P___PP___ -1 -18.9571 53.0228 99 -19.1275 52.2425 TC 35 -19.1150 52.2638 2 4 193
1916017S17054 1916 5 SI MM NOT_NAMED 1916-01-19 12:00:00 TS -19.3001 52.4600 main 346 339 _____P___OP___ -1 -19.1303 52.9450 99 -19.4000 52.2000 TC 35 -19.3700 52.2350 2 5 189
1916017S17054 1916 5 SI MM NOT_NAMED 1916-01-19 15:00:00 TS -19.5384 52.4256 main 342 325 _____P___PP___ -1 -19.3178 52.8706 99 -19.6575 52.1925 TC 35 -19.6400 52.2138 2 5 187
1916017S17054 1916 5 SI MM NOT_NAMED 1916-01-19 18:00:00 TS -19.7725 52.4013 main 325 316 _____P___OO___ -1 -19.5175 52.8040 99 -19.9000 52.2000 TC 35 -19.9000 52.2000 2 4 187
1916017S17054 1916 5 SI MM NOT_NAMED 1916-01-19 21:00:00 TS -19.9777 52.3740 main 316 308 _____P___PP___ -1 -19.7275 52.7493 99 -20.1075 52.2000 TC 35 -20.0981 52.1727 2 4 184
1916017S17054 1916 5 SI MM NOT_NAMED 1916-01-20 00:00:00 TS -20.1769 52.3554 main 308 308 _____P___OP___ -1 -19.9459 52.7109 99 -20.3000 52.2000 TC 35 -20.2849 52.1553 2 4 184
1916017S17054 1916 5 SI MM NOT_NAMED 1916-01-20 03:00:00 TS -20.3783 52.3461 main 311 296 _____P___PP___ -1 -20.1707 52.6930 99 -20.4850 52.1851 TC 35 -20.4793 52.1603 2 4 0
1916017S17054 1916 5 SI MM NOT_NAMED 1916-01-20 06:00:00 TS -20.6000 52.3667 reunion main 296 291 _____O___OO___ -1 -20.4000 52.7000 99 9.90000 -20.7000 52.2000 TC 35 -20.7000 52.2000 2 5 170
1916017S17054 1916 5 SI MM NOT_NAMED 1916-01-20 09:00:00 TS -20.8736 52.4391 main 291 280 _____P___PP___ -1 -20.6523 52.7472 99 -20.9850 52.2775 TC 35 -20.9835 52.2928 2 6 164
1916017S17054 1916 5 SI MM NOT_NAMED 1916-01-20 12:00:00 TS -21.1690 52.5466 main 280 261 _____P___OP___ -1 -20.9145 52.8202 99 -21.3000 52.4000 TC 35 -21.2926 52.4195 2 6 159
1916017S17054 1916 5 SI MM NOT_NAMED 1916-01-20 15:00:00 TS -21.4641 52.6751 main 262 254 _____P___PP___ -1 -21.1795 52.9139 99 -21.6075 52.5500 TC 35 -21.6054 52.5616 2 6 157
1916017S17054 1916 5 SI MM NOT_NAMED 1916-01-20 18:00:00 TS -21.7468 52.8076 main 257 254 _____P___OO___ -1 -21.4403 53.0227 99 -21.9000 52.7000 TC 35 -21.9000 52.7000 2 6 157
1916017S17054 1916 5 SI MM NOT_NAMED 1916-01-20 21:00:00 TS -22.0049 52.9229 main 258 253 _____P___PP___ -1 -21.6897 53.1413 99 -22.1650 52.8076 TC 35 -22.1599 52.8199 2 5 154
1916017S17054 1916 5 SI MM NOT_NAMED 1916-01-21 00:00:00 TS -22.2053 53.0524 main 248 243 _____P___OP___ -1 -21.9209 53.2641 99 -22.4000 52.9000 TC 35 -22.3899 52.9227 2 4 145
1916017S17054 1916 5 SI MM NOT_NAMED 1916-01-21 03:00:00 TS -22.3652 53.1956 main 249 237 _____P___PP___ -1 -22.1266 53.3855 99 -22.6075 52.9974 TC 35 -22.6000 53.0141 2 4 132
1916017S17054 1916 5 SI MM NOT_NAMED 1916-01-21 06:00:00 TS -22.4667 53.3667 reunion main 237 214 _____O___OO___ -1 -22.3000 53.5000 99 9.90000 -22.8000 53.1000 TC 35 -22.8000 53.1000 2 4 101
1916017S17054 1916 5 SI MM NOT_NAMED 1916-01-21 09:00:00 NR -22.4360 53.6030 main 214 212 _____P________ -1 -22.4360 53.6030 99 TC 2 3 103
1916017S17054 1916 5 SI MM NOT_NAMED 1916-01-21 12:00:00 NR -22.5376 53.6949 main 212 212 _____P________ -1 -22.5376 53.6949 99 2 2 137
1916017S17054 1916 5 SI MM NOT_NAMED 1916-01-21 15:00:00 NR -22.6097 53.7773 main 212 212 _____P________ -1 -22.6097 53.7773 99 2 2 130
1916017S17054 1916 5 SI MM NOT_NAMED 1916-01-21 18:00:00 NR -22.6572 53.8515 main 212 212 _____P________ -1 -22.6572 53.8515 99 2 119
1916017S17054 1916 5 SI MM NOT_NAMED 1916-01-21 21:00:00 NR -22.6851 53.9193 main 212 206 _____P________ -1 -22.6851 53.9193 99 1 109
1916017S17054 1916 5 SI MM NOT_NAMED 1916-01-22 00:00:00 NR -22.6983 53.9823 main 206 206 _____P________ -1 -22.6983 53.9823 99 1 98
1916017S17054 1916 5 SI MM NOT_NAMED 1916-01-22 03:00:00 NR -22.7016 54.0419 main 206 199 _____P________ -1 -22.7016 54.0419 99 1 91
1916017S17054 1916 5 SI MM NOT_NAMED 1916-01-22 06:00:00 NR -22.7000 54.1000 reunion main 199 _____O________ -1 -22.7000 54.1000 99 9.90000 1 88

About IBTrACS Database

This database is a web-friendly format of International Best Track Archive for Climate Stewardship (IBTrACS), a global best track data archive curated by NOAA dating back to 1842.

Updated: 2021-11-26